Time;durP1;ratioP1;P1;durP2;ratioP2;P2;SDS_P1;SDS_P2;PMS_P1;PMS_P2;Temp;Humidity;BMP_temperature;BMP_pressure;BME280_temperature;BME280_humidity;BME280_pressure;Samples;Min_cycle;Max_cycle;Signal;HPM_P1;HPM_P2
2022/03/11 00:00:42;;;;;;;7.57;4.27;;;0.80;70.30;;;;;;5032115;28;20257;-87
2022/03/11 00:03:13;;;;;;;8.67;4.30;;;0.80;69.30;;;;;;5032704;28;20207;-87
2022/03/11 00:05:43;;;;;;;5.50;4.27;;;0.70;70.10;;;;;;5035850;28;20218;-88
2022/03/11 00:08:11;;;;;;;3.77;3.47;;;0.70;70.70;;;;;;5035936;28;20198;-88
2022/03/11 00:10:42;;;;;;;7.23;4.47;;;0.70;71.00;;;;;;5035624;28;20226;-88
2022/03/11 00:13:10;;;;;;;4.23;3.60;;;0.70;72.10;;;;;;5028985;28;20207;-88
2022/03/11 00:15:39;;;;;;;7.33;4.67;;;0.70;73.40;;;;;;5035969;28;20233;-88
2022/03/11 00:18:08;;;;;;;5.17;3.97;;;0.70;73.30;;;;;;5036260;28;20206;-88
2022/03/11 00:20:36;;;;;;;7.13;4.17;;;0.70;73.30;;;;;;5036130;28;20224;-87
2022/03/11 00:23:05;;;;;;;4.80;4.37;;;0.60;74.80;;;;;;5035528;28;20232;-88
2022/03/11 00:25:34;;;;;;;5.07;4.27;;;0.50;73.00;;;;;;5036128;28;20252;-87
2022/03/11 00:28:04;;;;;;;6.03;4.67;;;0.60;73.30;;;;;;5035715;28;20206;-87
2022/03/11 00:30:32;;;;;;;4.43;4.00;;;0.60;73.70;;;;;;5035704;28;20222;-87
2022/03/11 00:33:03;;;;;;;5.30;3.97;;;0.50;73.90;;;;;;5036030;28;20213;-88
2022/03/11 00:35:32;;;;;;;5.33;4.73;;;0.50;73.20;;;;;;5035621;28;20203;-88
2022/03/11 00:38:00;;;;;;;4.10;3.80;;;0.50;73.00;;;;;;5035553;28;20203;-87
2022/03/11 00:40:29;;;;;;;3.63;3.33;;;0.50;72.90;;;;;;5035048;28;20300;-87
2022/03/11 00:42:57;;;;;;;4.50;4.00;;;0.40;72.70;;;;;;5035754;28;20223;-87
2022/03/11 00:45:30;;;;;;;5.57;4.53;;;0.30;73.10;;;;;;5036051;28;20207;-90
2022/03/11 00:47:59;;;;;;;6.13;4.30;;;0.30;72.80;;;;;;5036747;28;20210;-87
2022/03/11 00:50:28;;;;;;;18.77;4.93;;;0.30;75.00;;;;;;5036074;28;20286;-87
2022/03/11 00:52:57;;;;;;;3.97;3.60;;;0.30;73.40;;;;;;5036482;28;20289;-87
2022/03/11 00:55:27;;;;;;;4.83;3.90;;;0.30;73.00;;;;;;5037024;28;20206;-88
2022/03/11 00:57:55;;;;;;;3.73;3.40;;;0.30;73.50;;;;;;5035995;28;20194;-88
2022/03/11 01:00:28;;;;;;;4.97;3.13;;;0.20;73.70;;;;;;5035631;28;20276;-87
2022/03/11 01:02:57;;;;;;;17.87;10.23;;;0.20;74.40;;;;;;5020593;28;20230;-87
2022/03/11 01:05:26;;;;;;;23.77;11.03;;;0.30;75.20;;;;;;5041032;28;20203;-88
2022/03/11 01:07:56;;;;;;;9.47;6.10;;;0.30;74.70;;;;;;5036134;28;20291;-87
2022/03/11 01:10:26;;;;;;;5.50;3.60;;;0.30;74.30;;;;;;5035199;28;20222;-87
2022/03/11 01:12:55;;;;;;;5.33;3.70;;;0.30;73.60;;;;;;5035075;28;20194;-88
2022/03/11 01:15:26;;;;;;;4.07;3.67;;;0.30;74.40;;;;;;5034349;28;20202;-87
2022/03/11 01:18:00;;;;;;;5.00;4.03;;;0.30;75.60;;;;;;5040271;28;20281;-87
2022/03/11 01:20:32;;;;;;;4.70;4.20;;;0.30;74.60;;;;;;5040412;28;20229;-86
2022/03/11 01:23:04;;;;;;;3.83;3.53;;;0.30;76.50;;;;;;5043711;28;20296;-87
2022/03/11 01:25:34;;;;;;;4.07;3.67;;;0.20;75.10;;;;;;5034788;28;20198;-87
2022/03/11 01:28:07;;;;;;;4.10;3.70;;;0.20;74.80;;;;;;5035113;28;20289;-87
2022/03/11 01:30:35;;;;;;;3.73;3.43;;;0.20;77.50;;;;;;5034549;28;20218;-88
2022/03/11 01:33:10;;;;;;;4.27;3.20;;;0.20;77.40;;;;;;5035181;28;20202;-86
2022/03/11 01:35:39;;;;;;;7.50;4.30;;;0.20;74.80;;;;;;5034021;28;20198;-87
2022/03/11 01:38:13;;;;;;;7.53;3.67;;;0.10;74.10;;;;;;5034516;28;20207;-87
2022/03/11 01:40:47;;;;;;;4.53;3.83;;;0.10;76.70;;;;;;5033919;28;20222;-87
2022/03/11 01:43:18;;;;;;;8.97;4.33;;;0.00;74.40;;;;;;5034111;28;20310;-87
2022/03/11 01:45:46;;;;;;;7.23;3.90;;;0.00;74.70;;;;;;5034346;28;20297;-87
2022/03/11 01:48:16;;;;;;;5.97;3.80;;;0.00;75.30;;;;;;5034065;28;20253;-86
2022/03/11 01:50:45;;;;;;;4.17;3.50;;;0.00;75.20;;;;;;5033643;28;20215;-87
2022/03/11 01:53:14;;;;;;;5.20;4.07;;;0.00;75.50;;;;;;5033784;28;20198;-86
2022/03/11 01:55:42;;;;;;;4.47;3.70;;;0.00;76.00;;;;;;5034300;28;20229;-86
2022/03/11 01:58:12;;;;;;;7.73;3.43;;;-0.10;73.10;;;;;;5034058;28;20206;-87
2022/03/11 02:00:40;;;;;;;4.40;3.43;;;-0.20;75.10;;;;;;5033696;28;20215;-87
2022/03/11 02:03:09;;;;;;;4.10;3.13;;;-0.20;73.10;;;;;;5033199;28;20309;-87
2022/03/11 02:05:39;;;;;;;3.20;2.90;;;-0.20;73.80;;;;;;5033626;28;20211;-87
2022/03/11 02:08:07;;;;;;;3.33;2.93;;;-0.20;75.20;;;;;;5033978;28;20241;-87
2022/03/11 02:10:36;;;;;;;3.50;3.27;;;-0.30;74.50;;;;;;5033776;28;20226;-86
2022/03/11 02:13:06;;;;;;;3.13;2.83;;;-0.30;73.40;;;;;;5033304;28;20210;-86
2022/03/11 02:15:34;;;;;;;3.00;2.70;;;-0.30;72.80;;;;;;5033398;28;20195;-87
2022/03/11 02:18:03;;;;;;;2.70;2.50;;;-0.30;72.00;;;;;;5033471;28;20202;-86
2022/03/11 02:20:31;;;;;;;2.97;2.67;;;-0.40;72.60;;;;;;5033674;28;20231;-87
2022/03/11 02:23:02;;;;;;;7.63;3.67;;;-0.40;73.60;;;;;;5033336;28;20214;-86
2022/03/11 02:25:32;;;;;;;2.90;2.60;;;-0.50;75.20;;;;;;5014126;28;20226;-86
2022/03/11 02:28:01;;;;;;;11.90;2.93;;;-0.50;73.40;;;;;;5021102;28;20260;-87
2022/03/11 02:30:29;;;;;;;3.30;3.00;;;-0.50;73.50;;;;;;5033039;28;20226;-87
2022/03/11 02:32:58;;;;;;;3.20;2.93;;;-0.60;72.90;;;;;;5033399;28;20197;-86
2022/03/11 02:35:26;;;;;;;3.47;2.50;;;-0.60;73.20;;;;;;5022021;28;20199;-86
2022/03/11 02:37:54;;;;;;;2.97;2.67;;;-0.60;74.10;;;;;;5033385;28;20257;-86
2022/03/11 02:40:23;;;;;;;3.77;3.10;;;-0.60;75.50;;;;;;5032844;28;20230;-88
2022/03/11 02:42:53;;;;;;;2.70;2.50;;;-0.60;78.10;;;;;;5032774;28;20218;-89
2022/03/11 02:45:21;;;;;;;3.47;2.67;;;-0.60;75.70;;;;;;5032397;28;20272;-86
2022/03/11 02:47:50;;;;;;;3.00;2.67;;;-0.60;74.30;;;;;;5032624;28;20199;-87
2022/03/11 02:50:18;;;;;;;3.00;2.77;;;-0.70;74.50;;;;;;5032650;28;20279;-87
2022/03/11 02:52:47;;;;;;;3.10;2.80;;;-0.70;74.00;;;;;;5033298;28;20193;-87
2022/03/11 02:55:15;;;;;;;5.77;3.20;;;-0.70;77.70;;;;;;5032877;28;20272;-86
2022/03/11 02:57:43;;;;;;;3.23;3.00;;;-0.80;77.00;;;;;;5032997;28;20203;-87
2022/03/11 03:00:14;;;;;;;2.33;2.13;;;-0.80;77.00;;;;;;5032706;28;20219;-87
2022/03/11 03:02:43;;;;;;;2.43;2.23;;;-0.80;75.40;;;;;;5032747;28;20288;-86
2022/03/11 03:05:15;;;;;;;3.63;3.23;;;-0.80;75.00;;;;;;5033112;28;20198;-87
2022/03/11 03:07:44;;;;;;;2.73;2.53;;;-0.90;75.40;;;;;;5032672;28;20213;-87
2022/03/11 03:10:12;;;;;;;3.20;2.90;;;-0.90;76.50;;;;;;5032635;28;20230;-88
2022/03/11 03:12:41;;;;;;;3.40;3.10;;;-0.90;75.80;;;;;;5032078;28;20191;-86
2022/03/11 03:15:10;;;;;;;3.43;3.13;;;-1.00;76.10;;;;;;5032644;28;20198;-87
2022/03/11 03:17:40;;;;;;;3.80;3.50;;;-1.00;76.10;;;;;;5032080;28;20202;-87
2022/03/11 03:20:10;;;;;;;5.23;3.57;;;-1.00;78.20;;;;;;5032640;28;20241;-87
2022/03/11 03:22:38;;;;;;;3.33;3.03;;;-1.00;76.90;;;;;;5031550;28;20218;-86
2022/03/11 03:25:09;;;;;;;3.90;3.50;;;-1.00;77.60;;;;;;5032239;28;20202;-86
2022/03/11 03:27:38;;;;;;;3.27;3.07;;;-1.00;76.40;;;;;;5032181;28;20261;-86
2022/03/11 03:30:07;;;;;;;3.13;2.67;;;-1.00;76.30;;;;;;5032215;28;20249;-87
2022/03/11 03:32:35;;;;;;;2.57;2.37;;;-1.10;77.10;;;;;;5032039;28;20348;-87
2022/03/11 03:35:05;;;;;;;2.57;2.37;;;-1.10;77.80;;;;;;5032400;28;20198;-87
2022/03/11 03:37:34;;;;;;;3.27;2.47;;;-1.10;77.00;;;;;;5032167;28;20210;-87
2022/03/11 03:40:04;;;;;;;2.77;2.57;;;-1.10;77.50;;;;;;5031557;28;20276;-86
2022/03/11 03:42:32;;;;;;;3.20;2.67;;;-1.10;77.00;;;;;;5031708;28;20206;-86
2022/03/11 03:45:01;;;;;;;4.33;2.70;;;-1.20;77.50;;;;;;5032197;28;20245;-86
2022/03/11 03:47:29;;;;;;;2.13;2.03;;;-1.20;77.00;;;;;;5031964;28;20206;-87
2022/03/11 03:49:58;;;;;;;3.27;2.97;;;-1.20;77.60;;;;;;5031806;28;20226;-87
2022/03/11 03:52:29;;;;;;;4.43;3.20;;;-1.20;76.60;;;;;;5031673;28;20205;-86
2022/03/11 03:54:57;;;;;;;3.60;2.97;;;-1.20;78.20;;;;;;5032136;28;20199;-87
2022/03/11 03:57:27;;;;;;;3.70;2.87;;;-1.20;76.90;;;;;;5032092;28;20206;-87
2022/03/11 03:59:55;;;;;;;4.97;2.97;;;-1.30;77.30;;;;;;5032004;28;20226;-87
2022/03/11 04:02:23;;;;;;;3.13;2.23;;;-1.30;76.30;;;;;;5032454;28;20202;-86
2022/03/11 04:04:52;;;;;;;3.00;2.73;;;-1.30;77.00;;;;;;5031425;28;20295;-86
2022/03/11 04:07:20;;;;;;;2.47;2.27;;;-1.30;75.90;;;;;;5032032;28;20260;-87
2022/03/11 04:09:51;;;;;;;3.83;2.93;;;-1.40;75.50;;;;;;5031952;28;20225;-87
2022/03/11 04:12:19;;;;;;;6.27;3.50;;;-1.40;75.50;;;;;;5031889;28;20206;-87
2022/03/11 04:14:47;;;;;;;2.57;2.37;;;-1.40;79.40;;;;;;5031819;28;20187;-86
2022/03/11 04:17:16;;;;;;;2.57;2.30;;;-1.40;76.10;;;;;;5032052;28;20213;-87
2022/03/11 04:19:45;;;;;;;2.43;2.23;;;-1.40;75.70;;;;;;5031964;28;20207;-87
2022/03/11 04:22:13;;;;;;;2.27;2.17;;;-1.50;75.60;;;;;;5032061;28;20195;-87
2022/03/11 04:24:41;;;;;;;3.87;3.07;;;-1.50;74.90;;;;;;5031185;28;20215;-86
2022/03/11 04:27:11;;;;;;;2.93;2.67;;;-1.60;74.70;;;;;;5031778;28;20206;-87
2022/03/11 04:29:40;;;;;;;4.30;3.50;;;-1.60;75.20;;;;;;5032117;28;20207;-87
2022/03/11 04:32:09;;;;;;;2.87;2.67;;;-1.60;74.50;;;;;;5031915;28;20253;-88
2022/03/11 04:34:38;;;;;;;3.87;3.30;;;-1.60;74.90;;;;;;5033190;28;20203;-87
2022/03/11 04:37:07;;;;;;;3.30;2.57;;;-1.60;75.00;;;;;;5036508;28;20212;-87
2022/03/11 04:39:35;;;;;;;4.63;2.80;;;-1.60;74.70;;;;;;5039226;28;20203;-87
2022/03/11 04:42:06;;;;;;;2.60;2.40;;;-1.60;75.10;;;;;;5033831;28;20206;-87
2022/03/11 04:44:36;;;;;;;3.90;3.03;;;-1.60;74.40;;;;;;5031973;28;20288;-87
2022/03/11 04:47:05;;;;;;;4.93;3.23;;;-1.70;73.60;;;;;;5032421;28;20203;-87
2022/03/11 04:49:34;;;;;;;3.00;2.70;;;-1.70;74.00;;;;;;5034306;28;20210;-87
2022/03/11 04:52:04;;;;;;;3.90;2.87;;;-1.70;74.00;;;;;;5038039;28;20198;-86
2022/03/11 04:54:32;;;;;;;2.93;2.33;;;-1.70;73.50;;;;;;5039478;28;20195;-87
2022/03/11 04:57:01;;;;;;;3.33;2.47;;;-1.70;74.10;;;;;;5039676;28;20206;-88
2022/03/11 04:59:29;;;;;;;2.07;1.97;;;-1.70;73.80;;;;;;5038950;28;20256;-87
2022/03/11 05:01:59;;;;;;;3.50;3.20;;;-1.70;73.50;;;;;;5036789;28;20227;-87
2022/03/11 05:04:27;;;;;;;3.00;2.53;;;-1.80;74.00;;;;;;5036176;28;20226;-87
2022/03/11 05:06:56;;;;;;;3.73;3.30;;;-1.80;74.00;;;;;;5035642;28;20206;-86
2022/03/11 05:09:24;;;;;;;3.30;2.93;;;-1.80;73.80;;;;;;5035112;28;20211;-86
2022/03/11 05:11:53;;;;;;;4.17;3.57;;;-1.80;74.70;;;;;;5034909;28;20223;-86
2022/03/11 05:14:21;;;;;;;2.27;2.07;;;-1.80;74.30;;;;;;5034644;28;20260;-87
2022/03/11 05:16:49;;;;;;;3.73;2.67;;;-1.80;75.70;;;;;;5034287;28;20210;-89
2022/03/11 05:19:21;;;;;;;3.50;3.20;;;-1.80;75.90;;;;;;5034264;28;20209;-87
2022/03/11 05:21:49;;;;;;;3.47;2.63;;;-1.80;74.80;;;;;;5034651;28;20301;-87
2022/03/11 05:24:18;;;;;;;3.43;2.90;;;-1.80;76.00;;;;;;5014704;28;20222;-87
2022/03/11 05:26:48;;;;;;;2.63;2.40;;;-1.90;75.30;;;;;;5033373;28;20206;-87
2022/03/11 05:29:17;;;;;;;4.33;3.63;;;-1.90;75.30;;;;;;5034587;28;20206;-88
2022/03/11 05:31:45;;;;;;;3.13;2.83;;;-1.90;75.50;;;;;;5034202;28;20226;-87
2022/03/11 05:34:13;;;;;;;3.50;3.20;;;-1.80;75.50;;;;;;5034335;28;20202;-87
2022/03/11 05:36:43;;;;;;;5.57;3.13;;;-1.80;75.60;;;;;;5034238;28;20207;-87
2022/03/11 05:39:12;;;;;;;4.23;3.17;;;-1.90;75.60;;;;;;5034610;28;20199;-86
2022/03/11 05:41:40;;;;;;;7.70;2.90;;;-1.80;75.40;;;;;;5033627;28;20241;-86
2022/03/11 05:44:09;;;;;;;2.90;2.70;;;-1.90;76.30;;;;;;5033943;28;20272;-87
2022/03/11 05:46:37;;;;;;;2.27;2.07;;;-1.90;75.20;;;;;;5034587;28;20230;-86
2022/03/11 05:49:06;;;;;;;3.80;2.67;;;-1.90;76.00;;;;;;5033731;28;20202;-87
2022/03/11 05:51:34;;;;;;;3.63;3.00;;;-1.90;75.50;;;;;;5033666;28;20226;-87
2022/03/11 05:54:05;;;;;;;3.47;3.17;;;-1.90;76.40;;;;;;5034075;28;20203;-87
2022/03/11 05:56:34;;;;;;;4.77;2.43;;;-1.90;75.40;;;;;;5033895;28;20248;-86
2022/03/11 05:59:03;;;;;;;3.30;3.00;;;-1.90;75.80;;;;;;5033784;28;20198;-86
2022/03/11 06:01:31;;;;;;;3.60;3.27;;;-1.80;75.80;;;;;;5033138;28;20219;-87
2022/03/11 06:04:01;;;;;;;2.57;2.37;;;-1.80;76.00;;;;;;5033358;28;20222;-87
2022/03/11 06:06:30;;;;;;;5.37;2.43;;;-1.80;76.10;;;;;;5034148;28;20199;-86
2022/03/11 06:08:59;;;;;;;3.73;2.93;;;-1.80;75.60;;;;;;5033183;28;20210;-86
2022/03/11 06:11:29;;;;;;;3.73;3.27;;;-1.80;75.70;;;;;;5033093;28;20250;-86
2022/03/11 06:13:58;;;;;;;5.03;3.30;;;-1.80;75.70;;;;;;5033878;28;20267;-86
2022/03/11 06:16:26;;;;;;;3.60;3.03;;;-1.80;75.40;;;;;;5033755;28;20256;-86
2022/03/11 06:18:55;;;;;;;2.73;2.53;;;-1.80;76.70;;;;;;5014020;28;20209;-86
2022/03/11 06:21:23;;;;;;;3.37;3.10;;;-1.80;75.70;;;;;;5021139;28;20229;-86
2022/03/11 06:23:53;;;;;;;6.27;3.20;;;-1.80;75.10;;;;;;5033931;28;20194;-86
2022/03/11 06:26:21;;;;;;;3.20;2.80;;;-1.80;75.20;;;;;;5033469;28;20202;-87
2022/03/11 06:28:51;;;;;;;2.63;2.43;;;-1.80;76.10;;;;;;5033494;28;20257;-88
2022/03/11 06:31:26;;;;;;;5.27;3.43;;;-1.70;75.50;;;;;;5036050;28;20229;-94
2022/03/11 06:34:01;;;;;;;2.97;2.67;;;-1.70;75.00;;;;;;5035699;28;20256;-94
2022/03/11 06:36:49;;;;;;;4.23;3.33;;;-1.70;75.40;;;;;;5044846;28;20199;-96
2022/03/11 06:39:18;;;;;;;3.90;3.20;;;-1.70;75.00;;;;;;5019110;28;20204;-85
2022/03/11 06:41:46;;;;;;;3.13;2.80;;;-1.70;74.70;;;;;;5030269;28;20267;-86
2022/03/11 06:44:17;;;;;;;4.33;3.20;;;-1.60;74.90;;;;;;5045679;28;20199;-86
2022/03/11 06:46:46;;;;;;;3.37;2.93;;;-1.60;75.30;;;;;;5033016;28;20265;-84
2022/03/11 06:49:15;;;;;;;3.23;2.93;;;-1.70;74.50;;;;;;5033111;28;20260;-85
2022/03/11 06:51:43;;;;;;;3.20;2.90;;;-1.60;74.60;;;;;;5033162;28;20230;-85
2022/03/11 06:54:12;;;;;;;3.43;3.13;;;-1.60;77.20;;;;;;5033033;28;20211;-85
2022/03/11 06:56:40;;;;;;;4.70;3.30;;;-1.50;75.30;;;;;;5033095;28;20203;-84
2022/03/11 06:59:09;;;;;;;3.07;2.77;;;-1.50;74.30;;;;;;5033149;28;20202;-86
2022/03/11 07:01:39;;;;;;;3.20;2.90;;;-1.50;74.30;;;;;;5032901;28;20276;-86
2022/03/11 07:04:07;;;;;;;3.00;2.67;;;-1.50;74.70;;;;;;5032817;28;20269;-86
2022/03/11 07:06:36;;;;;;;4.33;3.10;;;-1.50;73.80;;;;;;5033020;28;20233;-86
2022/03/11 07:09:04;;;;;;;4.90;3.40;;;-1.40;73.80;;;;;;5032819;28;20198;-85
2022/03/11 07:11:33;;;;;;;5.00;3.40;;;-1.30;75.50;;;;;;5032490;28;20264;-87
2022/03/11 07:14:01;;;;;;;3.37;2.93;;;-1.30;73.10;;;;;;5031993;28;20237;-85
2022/03/11 07:16:30;;;;;;;2.60;2.37;;;-1.20;73.30;;;;;;5032702;28;20202;-85
2022/03/11 07:19:00;;;;;;;3.10;2.80;;;-1.20;72.60;;;;;;5033068;28;20261;-85
2022/03/11 07:21:29;;;;;;;3.67;3.17;;;-1.20;72.00;;;;;;5015888;28;20250;-85
2022/03/11 07:23:57;;;;;;;3.47;2.70;;;-1.10;72.50;;;;;;5031797;28;20202;-86
2022/03/11 07:26:25;;;;;;;4.07;3.40;;;-1.00;70.90;;;;;;5031717;28;20222;-85
2022/03/11 07:28:54;;;;;;;5.43;3.20;;;-1.10;70.50;;;;;;5032925;28;20206;-85
2022/03/11 07:31:27;;;;;;;4.60;3.33;;;-1.00;70.90;;;;;;5031972;28;20238;-85
2022/03/11 07:33:56;;;;;;;4.10;3.40;;;-1.00;71.20;;;;;;5032355;28;20201;-86
2022/03/11 07:36:26;;;;;;;5.17;3.03;;;-0.90;70.90;;;;;;5032775;28;20198;-85
2022/03/11 07:38:55;;;;;;;2.47;2.27;;;-1.00;69.60;;;;;;5032486;28;20199;-85
2022/03/11 07:41:26;;;;;;;3.23;2.93;;;-0.90;69.80;;;;;;5032007;28;20306;-85
2022/03/11 07:43:55;;;;;;;3.73;2.90;;;-0.90;69.70;;;;;;5032435;28;20225;-85
2022/03/11 07:46:41;;;;;;;4.90;3.10;;;-0.90;69.20;;;;;;5028459;28;20226;-85
2022/03/11 07:49:10;;;;;;;3.33;3.03;;;-0.80;69.50;;;;;;5032311;28;20206;-85
2022/03/11 07:51:40;;;;;;;11.87;2.93;;;-0.80;69.30;;;;;;5031699;28;20222;-85
2022/03/11 07:54:08;;;;;;;2.63;2.43;;;-0.70;68.90;;;;;;5032527;28;20210;-85
2022/03/11 07:56:37;;;;;;;9.03;3.70;;;-0.60;68.90;;;;;;5029958;28;20248;-86
2022/03/11 07:59:07;;;;;;;10.57;3.30;;;-0.50;68.90;;;;;;5032673;28;20206;-85
2022/03/11 08:01:35;;;;;;;3.43;3.13;;;-0.40;68.20;;;;;;5032184;28;20229;-85
2022/03/11 08:04:06;;;;;;;11.40;3.77;;;-0.30;68.30;;;;;;5012445;28;20272;-85
2022/03/11 08:06:36;;;;;;;2.93;2.73;;;-0.30;68.20;;;;;;5012270;28;20277;-85
2022/03/11 08:09:06;;;;;;;3.93;2.90;;;-0.20;68.60;;;;;;5014376;28;20226;-89
2022/03/11 08:11:37;;;;;;;2.80;2.60;;;-0.10;67.00;;;;;;5025415;28;20223;-87
2022/03/11 08:14:07;;;;;;;2.97;2.67;;;-0.10;66.30;;;;;;5015476;28;20207;-88
2022/03/11 08:16:35;;;;;;;4.70;3.13;;;-0.10;66.90;;;;;;5035027;28;20194;-91
2022/03/11 08:19:06;;;;;;;3.77;3.00;;;-0.10;66.00;;;;;;5040461;28;20268;-90
2022/03/11 08:22:02;;;;;;;2.87;2.67;;;0.00;66.40;;;;;;5012639;28;20265;-88
2022/03/11 08:24:34;;;;;;;2.87;2.67;;;0.00;65.40;;;;;;5032467;28;20305;-92
2022/03/11 08:27:04;;;;;;;4.47;3.03;;;0.10;65.40;;;;;;5035104;28;20218;-92
2022/03/11 08:32:18;;;;;;;4.07;3.33;;;0.10;65.00;;;;;;5042030;28;20205;-89
2022/03/11 08:34:50;;;;;;;2.90;2.70;;;0.30;65.50;;;;;;5029121;28;20203;-85
2022/03/11 08:37:25;;;;;;;2.67;2.47;;;0.50;68.20;;;;;;5022453;28;20210;-85
2022/03/11 08:39:55;;;;;;;4.73;3.63;;;0.60;63.80;;;;;;5037956;28;20234;-85
2022/03/11 08:42:23;;;;;;;2.73;2.53;;;0.60;63.20;;;;;;5035503;28;20210;-85
2022/03/11 08:44:52;;;;;;;9.37;2.83;;;0.70;64.40;;;;;;5035031;28;20218;-86
2022/03/11 08:47:22;;;;;;;2.73;2.53;;;0.80;64.20;;;;;;5035135;28;20226;-84
2022/03/11 08:49:51;;;;;;;2.47;2.27;;;0.90;63.70;;;;;;5034689;28;20224;-85
2022/03/11 08:52:21;;;;;;;3.20;3.00;;;0.90;63.40;;;;;;5028722;28;20256;-85
2022/03/11 08:54:56;;;;;;;3.93;2.60;;;1.00;62.60;;;;;;5035413;28;20198;-85
2022/03/11 08:57:25;;;;;;;12.27;3.40;;;1.10;63.30;;;;;;5035343;28;20207;-86
2022/03/11 09:00:00;;;;;;;6.83;3.63;;;1.30;65.10;;;;;;5035069;28;20222;-86
2022/03/11 09:02:28;;;;;;;4.00;3.30;;;1.70;64.40;;;;;;5034651;28;20209;-86
2022/03/11 09:04:57;;;;;;;3.42;3.00;;;2.00;63.30;;;;;;5035013;28;20217;-86
2022/03/11 09:07:29;;;;;;;6.47;3.50;;;2.40;61.80;;;;;;5034643;28;20277;-87
2022/03/11 09:10:00;;;;;;;5.13;3.90;;;2.50;60.70;;;;;;5034834;28;20242;-78
2022/03/11 09:12:28;;;;;;;3.22;2.75;;;2.80;64.10;;;;;;5037470;28;20198;-88
2022/03/11 09:15:00;;;;;;;3.38;3.00;;;3.70;59.60;;;;;;5041766;28;20290;-88
2022/03/11 09:17:29;;;;;;;3.08;2.83;;;4.20;57.70;;;;;;5036961;28;20248;-84
2022/03/11 09:20:04;;;;;;;4.30;3.70;;;5.00;58.10;;;;;;5044510;28;20244;-86
2022/03/11 09:22:43;;;;;;;3.10;2.83;;;5.80;56.10;;;;;;5044647;28;20198;-88
2022/03/11 09:25:24;;;;;;;6.18;4.13;;;6.20;53.80;;;;;;5034663;28;20207;-87
2022/03/11 09:27:52;;;;;;;4.65;3.75;;;6.70;53.10;;;;;;5034198;28;20211;-86
2022/03/11 09:30:21;;;;;;;3.85;3.55;;;7.20;53.40;;;;;;5034296;28;20234;-87
2022/03/11 09:32:49;;;;;;;3.42;3.13;;;7.60;52.30;;;;;;5034065;28;20206;-82
2022/03/11 09:35:18;;;;;;;4.15;3.58;;;7.60;49.80;;;;;;5034100;28;20209;-82
2022/03/11 09:37:49;;;;;;;3.75;3.45;;;6.70;49.60;;;;;;5033065;28;20194;-81
2022/03/11 09:40:19;;;;;;;3.38;3.08;;;7.00;51.50;;;;;;5034059;28;20250;-84
2022/03/11 09:42:50;;;;;;;3.92;3.53;;;7.20;49.50;;;;;;5034110;28;20210;-83
2022/03/11 09:45:21;;;;;;;4.68;3.30;;;7.10;49.10;;;;;;5034338;28;20245;-84
2022/03/11 09:47:50;;;;;;;3.55;3.30;;;6.60;49.80;;;;;;5033554;28;20226;-83
2022/03/11 09:50:19;;;;;;;3.90;3.50;;;7.30;52.00;;;;;;5034090;28;20272;-84
2022/03/11 09:52:53;;;;;;;7.35;4.13;;;7.80;49.60;;;;;;5033719;28;20210;-83
2022/03/11 09:55:24;;;;;;;5.68;4.13;;;7.50;47.50;;;;;;5034197;28;20214;-84
2022/03/11 09:57:53;;;;;;;3.85;3.50;;;7.00;47.20;;;;;;5033865;28;20215;-84
2022/03/11 10:00:21;;;;;;;4.45;3.65;;;6.90;47.50;;;;;;5033452;28;20233;-84
2022/03/11 10:02:56;;;;;;;3.72;3.42;;;7.10;47.10;;;;;;5033893;28;20284;-84
2022/03/11 10:05:25;;;;;;;3.92;3.63;;;6.90;46.90;;;;;;5033664;28;20253;-84
2022/03/11 10:08:01;;;;;;;3.65;3.33;;;7.00;47.00;;;;;;5033746;28;20246;-84
2022/03/11 10:10:32;;;;;;;3.70;3.25;;;7.00;47.30;;;;;;5033414;28;20248;-84
2022/03/11 10:13:08;;;;;;;3.35;2.85;;;7.10;46.90;;;;;;5033553;28;20230;-84
2022/03/11 10:15:38;;;;;;;2.72;2.53;;;7.20;46.60;;;;;;5033779;28;20202;-83
2022/03/11 10:18:13;;;;;;;3.10;2.90;;;7.00;47.60;;;;;;5033711;28;20198;-84
2022/03/11 10:20:41;;;;;;;4.15;3.83;;;6.80;47.70;;;;;;5034061;28;20222;-84
2022/03/11 10:23:11;;;;;;;5.53;3.85;;;6.50;47.00;;;;;;5033372;28;20206;-84
2022/03/11 10:25:41;;;;;;;5.10;3.30;;;6.50;47.40;;;;;;5033209;28;20214;-84
2022/03/11 10:28:12;;;;;;;3.63;3.33;;;6.60;47.30;;;;;;5033198;28;20236;-84
2022/03/11 10:30:42;;;;;;;8.15;3.58;;;6.70;48.00;;;;;;5033454;28;20222;-84
2022/03/11 10:33:12;;;;;;;5.85;3.28;;;7.20;47.30;;;;;;5033612;28;20210;-84
2022/03/11 10:35:44;;;;;;;4.70;3.53;;;7.40;45.80;;;;;;5033663;28;20214;-84
2022/03/11 10:38:14;;;;;;;6.45;3.70;;;7.80;45.50;;;;;;5033170;28;20210;-84
2022/03/11 10:40:51;;;;;;;4.63;3.30;;;8.10;44.90;;;;;;5033212;28;20230;-84
2022/03/11 10:43:20;;;;;;;2.88;2.67;;;8.20;44.90;;;;;;5033312;28;20213;-83
2022/03/11 10:45:52;;;;;;;4.00;3.50;;;8.30;44.60;;;;;;5033330;28;20245;-84
2022/03/11 10:48:44;;;;;;;3.88;3.20;;;8.40;43.10;;;;;;5033240;28;20230;-84
2022/03/11 10:51:14;;;;;;;4.00;3.35;;;8.40;44.40;;;;;;5033012;28;20239;-84
2022/03/11 10:53:42;;;;;;;3.10;2.80;;;8.60;44.10;;;;;;5033061;28;20202;-84
2022/03/11 10:56:25;;;;;;;3.47;3.17;;;8.90;42.80;;;;;;5032738;28;20203;-84
2022/03/11 10:58:54;;;;;;;3.78;3.45;;;9.30;43.30;;;;;;5032956;28;20210;-84
2022/03/11 11:01:36;;;;;;;4.55;3.65;;;9.40;42.70;;;;;;5032828;28;20226;-84
2022/03/11 11:04:07;;;;;;;4.50;3.13;;;9.10;42.30;;;;;;5032996;28;20318;-84
2022/03/11 11:06:36;;;;;;;3.10;2.85;;;9.30;42.80;;;;;;5032744;28;20210;-84
2022/03/11 11:09:06;;;;;;;2.78;2.58;;;9.70;42.30;;;;;;5032972;28;20302;-84
2022/03/11 11:11:36;;;;;;;3.78;3.38;;;10.00;41.00;;;;;;5032782;28;20272;-84
2022/03/11 11:14:07;;;;;;;3.85;3.40;;;10.20;40.50;;;;;;5033267;28;20217;-84
2022/03/11 11:16:40;;;;;;;4.78;4.05;;;10.60;41.00;;;;;;5032734;28;20210;-84
2022/03/11 11:19:10;;;;;;;7.00;3.60;;;10.60;39.30;;;;;;5032548;28;20207;-84
2022/03/11 11:21:41;;;;;;;4.30;3.58;;;10.40;38.80;;;;;;5032574;28;20226;-84
2022/03/11 11:24:14;;;;;;;4.38;3.33;;;9.90;39.90;;;;;;5032525;28;20252;-83
2022/03/11 11:26:47;;;;;;;2.75;2.55;;;10.10;38.70;;;;;;5032423;28;20271;-83
2022/03/11 11:29:19;;;;;;;3.13;2.90;;;9.70;39.60;;;;;;5032696;28;20214;-83
2022/03/11 11:31:49;;;;;;;5.00;3.15;;;9.50;39.80;;;;;;5032341;28;20244;-83
2022/03/11 11:34:25;;;;;;;3.22;2.92;;;9.60;40.00;;;;;;5032413;28;20206;-83
2022/03/11 11:36:54;;;;;;;4.65;3.38;;;9.80;41.10;;;;;;5032588;28;20214;-83
2022/03/11 11:39:25;;;;;;;3.22;2.90;;;10.10;39.50;;;;;;5032624;28;20210;-84
2022/03/11 11:41:57;;;;;;;3.58;3.25;;;10.30;39.40;;;;;;5032613;28;20223;-83
2022/03/11 11:44:43;;;;;;;3.53;3.22;;;10.50;38.40;;;;;;5032137;28;20210;-82
2022/03/11 11:47:15;;;;;;;3.60;3.30;;;10.50;38.90;;;;;;5032259;28;20226;-82
2022/03/11 11:49:46;;;;;;;5.45;3.35;;;10.80;38.80;;;;;;5032471;28;20206;-83
2022/03/11 11:52:29;;;;;;;3.78;3.47;;;11.10;38.70;;;;;;5031959;28;20209;-83
2022/03/11 11:55:19;;;;;;;2.85;2.65;;;11.00;38.60;;;;;;5032147;28;20242;-83
2022/03/11 11:57:50;;;;;;;6.22;3.40;;;11.10;37.60;;;;;;5031942;28;20213;-82
2022/03/11 12:00:37;;;;;;;3.88;3.55;;;10.80;38.10;;;;;;5033506;28;20230;-82
2022/03/11 12:03:07;;;;;;;5.80;3.75;;;11.00;38.60;;;;;;5036402;28;20206;-83
2022/03/11 12:05:47;;;;;;;4.20;3.80;;;11.30;38.30;;;;;;5036306;28;20214;-82
2022/03/11 12:08:49;;;;;;;3.72;3.42;;;11.50;39.10;;;;;;5036359;28;20230;-84
2022/03/11 12:11:42;;;;;;;4.22;3.53;;;11.70;37.80;;;;;;4975160;28;20236;-82
2022/03/11 12:14:12;;;;;;;3.50;3.20;;;11.70;37.30;;;;;;4975904;28;20215;-84
2022/03/11 12:17:00;;;;;;;3.03;2.75;;;11.80;36.70;;;;;;5013901;28;20225;-84
2022/03/11 12:19:40;;;;;;;7.53;3.78;;;11.50;36.90;;;;;;5036138;28;20206;-82
2022/03/11 12:22:31;;;;;;;4.25;3.67;;;11.40;38.90;;;;;;5035793;28;20206;-82
2022/03/11 12:25:01;;;;;;;3.78;3.38;;;11.90;39.30;;;;;;5035541;28;20214;-83
2022/03/11 12:28:00;;;;;;;6.10;3.90;;;12.10;36.60;;;;;;5035415;28;20245;-83
2022/03/11 12:30:32;;;;;;;4.15;3.53;;;11.90;35.50;;;;;;5002751;28;20235;-83
2022/03/11 12:33:02;;;;;;;3.53;2.97;;;11.70;35.80;;;;;;5036126;28;20206;-82
2022/03/11 12:35:31;;;;;;;3.95;3.63;;;11.70;35.80;;;;;;5035899;28;20203;-83
2022/03/11 12:38:00;;;;;;;7.15;5.05;;;11.10;35.10;;;;;;5035528;28;20280;-83
2022/03/11 12:40:29;;;;;;;6.90;4.97;;;11.30;36.60;;;;;;5035476;28;20226;-83
2022/03/11 12:43:03;;;;;;;4.88;4.22;;;11.40;36.10;;;;;;5036018;28;20225;-82
2022/03/11 12:45:36;;;;;;;5.93;3.78;;;11.30;36.40;;;;;;5035615;28;20292;-83
2022/03/11 12:48:06;;;;;;;5.38;3.35;;;11.30;37.60;;;;;;5035843;28;20301;-82
2022/03/11 12:50:35;;;;;;;4.57;3.40;;;11.20;40.20;;;;;;5035027;28;20284;-82
2022/03/11 12:53:06;;;;;;;3.35;3.08;;;11.30;36.20;;;;;;5035337;28;20202;-82
2022/03/11 12:55:36;;;;;;;2.97;2.72;;;11.20;35.20;;;;;;5035488;28;20257;-83
2022/03/11 12:58:07;;;;;;;3.42;3.13;;;11.50;35.90;;;;;;5035275;28;20203;-82
2022/03/11 13:00:39;;;;;;;5.13;3.63;;;12.00;36.60;;;;;;5035350;28;20226;-82
2022/03/11 13:03:11;;;;;;;3.10;2.90;;;12.00;35.10;;;;;;5035593;28;20217;-83
2022/03/11 13:05:42;;;;;;;2.92;2.72;;;11.80;35.60;;;;;;5034859;28;20293;-82
2022/03/11 13:08:15;;;;;;;3.60;3.30;;;11.70;35.10;;;;;;5035007;28;20222;-83
2022/03/11 13:10:45;;;;;;;4.18;3.13;;;12.00;35.60;;;;;;5034351;28;20227;-82